Time;durP1;ratioP1;P1;durP2;ratioP2;P2;SDS_P1;SDS_P2;PMS_P1;PMS_P2;Temp;Humidity;BMP_temperature;BMP_pressure;BME280_temperature;BME280_humidity;BME280_pressure;Samples;Min_cycle;Max_cycle;Signal;HPM_P1;HPM_P2
2024/01/03 00:01:28;;;;;;;;;6.00;1.00;;;;;11.69;80.31;99538.59;4975176;28;45513;-53
2024/01/03 00:03:55;;;;;;;;;1.67;0.00;;;;;11.68;79.84;99520.97;4974514;28;47093;-53
2024/01/03 00:06:20;;;;;;;;;4.67;2.00;;;;;11.69;79.83;99533.28;4974398;28;45486;-53
2024/01/03 00:08:46;;;;;;;;;3.00;2.67;;;;;11.71;80.38;99523.28;4974562;28;45407;-53
2024/01/03 00:11:19;;;;;;;;;9.00;3.00;;;;;11.72;80.16;99522.25;4974671;28;45243;-50
2024/01/03 00:14:19;;;;;;;;;4.00;2.00;;;;;11.74;80.26;99514.06;4976985;28;47229;-55
2024/01/03 00:16:45;;;;;;;;;3.67;2.00;;;;;11.73;80.02;99510.59;4977274;28;45371;-52
2024/01/03 00:19:21;;;;;;;;;1.00;1.00;;;;;11.74;80.02;99519.41;4977677;28;45457;-52
2024/01/03 00:21:46;;;;;;;;;6.33;4.00;;;;;11.80;79.91;99515.16;4977627;28;45421;-53
2024/01/03 00:24:16;;;;;;;;;5.00;4.00;;;;;11.77;80.07;99512.91;4977107;28;45542;-52
2024/01/03 00:26:41;;;;;;;;;5.00;3.00;;;;;11.84;80.16;99524.47;4977314;28;45482;-53
2024/01/03 00:29:26;;;;;;;;;2.33;2.33;;;;;11.84;80.02;99521.81;4977269;28;45473;-53
2024/01/03 00:31:52;;;;;;;;;10.67;3.67;;;;;11.82;79.58;99516.66;4977560;28;45380;-53
2024/01/03 00:34:17;;;;;;;;;1.00;1.00;;;;;11.87;79.83;99529.44;4976879;28;45836;-52
2024/01/03 00:36:42;;;;;;;;;11.00;4.00;;;;;11.85;80.18;99521.66;4976990;28;45390;-50
2024/01/03 00:39:09;;;;;;;;;2.00;2.00;;;;;11.84;79.77;99532.47;4976934;28;45232;-53
2024/01/03 00:41:34;;;;;;;;;11.33;2.67;;;;;11.82;80.23;99523.81;4977323;28;45459;-51
2024/01/03 00:43:59;;;;;;;;;5.00;3.00;;;;;11.78;80.17;99526.03;4976586;28;56517;-49
2024/01/03 00:46:25;;;;;;;;;4.00;1.00;;;;;11.76;79.80;99525.41;4976656;28;53452;-53
2024/01/03 00:48:50;;;;;;;;;8.00;2.00;;;;;11.75;80.13;99518.38;4977058;28;45416;-53
2024/01/03 00:51:16;;;;;;;;;0.67;0.67;;;;;11.71;80.10;99511.78;4977189;28;45394;-54
2024/01/03 00:53:41;;;;;;;;;2.67;1.00;;;;;11.69;80.34;99514.63;4976803;28;45445;-54
2024/01/03 00:56:07;;;;;;;;;4.33;2.00;;;;;11.70;80.53;99512.78;4976688;28;45438;-53
2024/01/03 00:58:33;;;;;;;;;6.00;2.00;;;;;11.67;80.20;99507.81;4976974;28;45409;-50
2024/01/03 01:00:58;;;;;;;;;3.67;2.33;;;;;11.64;80.73;99498.38;4976973;28;45433;-53
2024/01/03 01:03:24;;;;;;;;;3.00;1.67;;;;;11.64;80.60;99511.69;4976542;28;46410;-49
2024/01/03 01:05:49;;;;;;;;;8.67;2.33;;;;;11.63;80.63;99509.19;4976549;28;45387;-53
2024/01/03 01:08:14;;;;;;;;;7.00;0.67;;;;;11.62;80.56;99494.22;4976893;28;45359;-54
2024/01/03 01:10:40;;;;;;;;;2.67;2.67;;;;;11.64;81.16;99509.03;4976991;28;45416;-52
2024/01/03 01:13:05;;;;;;;;;29.00;19.00;;;;;11.64;80.81;99509.03;4976554;28;45491;-54
2024/01/03 01:15:30;;;;;;;;;5.33;1.33;;;;;11.63;80.78;99506.53;4976383;28;45229;-54
2024/01/03 01:17:56;;;;;;;;;3.00;1.00;;;;;11.69;80.61;99513.81;4976790;28;45547;-53
2024/01/03 01:20:21;;;;;;;;;4.33;1.00;;;;;11.70;80.69;99513.63;4976720;28;45437;-53
2024/01/03 01:22:46;;;;;;;;;4.00;1.00;;;;;11.70;81.09;99502.97;4976733;28;47260;-52
2024/01/03 01:25:12;;;;;;;;;5.67;2.67;;;;;11.73;80.66;99502.59;4979905;28;45344;-52
2024/01/03 01:27:37;;;;;;;;;7.67;2.33;;;;;11.71;80.62;99490.47;4979985;28;45538;-51
2024/01/03 01:30:03;;;;;;;;;5.33;1.67;;;;;11.71;80.38;99501.97;4980365;28;45233;-51
2024/01/03 01:32:28;;;;;;;;;4.00;2.33;;;;;11.69;81.18;99493.31;4979795;28;45416;-53
2024/01/03 01:34:53;;;;;;;;;7.00;1.33;;;;;11.67;80.97;99498.03;4979805;28;45326;-50
2024/01/03 01:37:19;;;;;;;;;7.33;2.00;;;;;11.68;81.36;99502.34;4979453;28;48230;-53
2024/01/03 01:39:45;;;;;;;;;4.33;1.33;;;;;11.65;81.59;99500.03;4962494;28;45340;-49
2024/01/03 01:42:10;;;;;;;;;6.33;2.00;;;;;11.65;81.60;99493.88;4979639;28;46235;-52
2024/01/03 01:44:36;;;;;;;;;7.00;3.00;;;;;11.66;81.58;99500.84;4979428;28;45484;-52
2024/01/03 01:47:05;;;;;;;;;3.33;3.00;;;;;11.66;81.74;99514.16;4979735;28;45201;-49
2024/01/03 01:49:31;;;;;;;;;7.67;1.00;;;;;11.47;81.64;99478.28;4978552;28;45534;-49
2024/01/03 01:51:56;;;;;;;;;8.67;2.00;;;;;11.64;81.91;99509.03;4979398;28;46289;-50
2024/01/03 01:54:23;;;;;;;;;2.00;2.00;;;;;11.64;81.27;99508.22;4979410;28;45228;-52
2024/01/03 01:56:48;;;;;;;;;3.33;1.33;;;;;11.70;81.55;99504.81;4979780;28;45313;-52
2024/01/03 01:59:16;;;;;;;;;6.33;2.00;;;;;11.75;81.81;99507.72;4979912;28;45434;-53
2024/01/03 02:01:42;;;;;;;;;4.33;2.00;;;;;11.76;81.69;99505.91;4977979;28;45473;-53
2024/01/03 02:04:09;;;;;;;;;7.00;1.67;;;;;11.78;80.85;99503.88;4979402;28;45401;-51
2024/01/03 02:06:35;;;;;;;;;2.67;1.00;;;;;11.76;80.99;99505.91;4979237;28;45466;-52
2024/01/03 02:09:00;;;;;;;;;6.67;2.00;;;;;11.74;81.61;99506.91;4979515;28;45545;-53
2024/01/03 02:11:25;;;;;;;;;6.67;3.00;;;;;11.76;81.54;99500.59;4978990;28;45897;-51
2024/01/03 02:13:51;;;;;;;;;4.67;2.00;;;;;11.76;81.13;99490.75;4979170;28;47230;-53
2024/01/03 02:16:16;;;;;;;;;2.00;2.00;;;;;11.75;81.96;99489.09;4979050;28;45448;-53
2024/01/03 02:18:44;;;;;;;;;6.00;2.00;;;;;11.71;81.89;99491.31;4979790;28;45208;-53
2024/01/03 02:21:16;;;;;;;;;6.00;1.67;;;;;11.76;81.96;99488.09;4979496;28;48391;-53
2024/01/03 02:23:42;;;;;;;;;2.00;1.00;;;;;11.78;81.87;99487.91;4979112;28;45239;-53
2024/01/03 02:26:08;;;;;;;;;6.67;3.00;;;;;11.80;81.72;99491.19;4979359;28;45524;-51
2024/01/03 02:28:33;;;;;;;;;5.67;3.00;;;;;11.79;82.28;99474.38;4979392;28;45481;-51
2024/01/03 02:30:59;;;;;;;;;2.00;2.00;;;;;11.74;81.88;99463.47;4979160;28;45291;-50
2024/01/03 02:33:24;;;;;;;;;5.33;0.67;;;;;11.84;82.03;99484.50;4977555;28;45291;-53
2024/01/03 02:35:49;;;;;;;;;7.67;2.00;;;;;11.82;82.62;99481.19;4978767;28;45248;-51
2024/01/03 02:38:15;;;;;;;;;1.67;1.33;;;;;11.81;82.47;99495.53;4979226;28;45228;-53
2024/01/03 02:40:40;;;;;;;;;5.33;3.00;;;;;11.76;83.02;99490.75;4978809;28;46025;-53
2024/01/03 02:43:05;;;;;;;;;7.33;2.00;;;;;11.69;82.70;99482.66;4978673;28;45458;-52
2024/01/03 02:45:31;;;;;;;;;5.33;2.33;;;;;11.74;83.28;99492.75;4978844;28;45583;-51
2024/01/03 02:47:56;;;;;;;;;6.67;2.00;;;;;11.76;83.68;99489.94;4978803;28;45452;-55
2024/01/03 02:50:21;;;;;;;;;3.33;1.33;;;;;11.78;83.33;99491.38;4978307;28;47099;-50
2024/01/03 02:52:47;;;;;;;;;2.00;2.00;;;;;11.79;83.37;99484.22;4978569;28;45370;-53
2024/01/03 02:55:12;;;;;;;;;10.33;2.33;;;;;11.79;83.46;99479.72;4978648;28;45469;-51
2024/01/03 02:57:37;;;;;;;;;4.00;2.00;;;;;11.80;83.37;99469.88;4978843;28;45355;-53
2024/01/03 03:00:03;;;;;;;;;3.00;3.00;;;;;11.80;83.36;99473.41;4978438;28;45408;-52
2024/01/03 03:02:28;;;;;;;;;5.67;3.33;;;;;11.82;83.24;99468.69;4978313;28;45308;-51
2024/01/03 03:04:54;;;;;;;;;3.33;2.00;;;;;11.85;82.93;99483.53;4978348;28;45272;-52
2024/01/03 03:07:19;;;;;;;;;5.00;1.33;;;;;11.86;83.65;99471.84;4978866;28;45403;-48
2024/01/03 03:09:44;;;;;;;;;2.00;1.00;;;;;11.88;83.18;99483.13;4978130;28;49573;-49
2024/01/03 03:12:10;;;;;;;;;5.00;1.00;;;;;11.91;83.05;99461.44;4977951;28;46238;-52
2024/01/03 03:14:35;;;;;;;;;3.00;1.33;;;;;11.93;83.42;99480.75;4978378;28;45419;-52
2024/01/03 03:17:00;;;;;;;;;8.00;2.00;;;;;11.92;83.17;99453.25;4978326;28;45377;-52
2024/01/03 03:19:29;;;;;;;;;3.00;0.00;;;;;11.88;83.08;99454.66;4978077;28;46260;-51
2024/01/03 03:21:54;;;;;;;;;6.67;2.00;;;;;11.91;83.69;99464.13;4978184;28;45360;-51
2024/01/03 03:24:19;;;;;;;;;4.33;2.33;;;;;11.93;83.25;99468.25;4977721;28;45890;-52
2024/01/03 03:26:45;;;;;;;;;6.33;2.33;;;;;11.82;84.28;99451.88;4978554;28;45371;-51
2024/01/03 03:29:10;;;;;;;;;7.00;1.00;;;;;11.93;86.08;99476.25;4977889;28;45957;-51
2024/01/03 03:31:35;;;;;;;;;4.00;3.00;;;;;11.88;86.66;99468.00;4978363;28;45511;-52
2024/01/03 03:34:00;;;;;;;;;3.00;1.00;;;;;11.91;86.62;99486.25;4978109;28;45397;-58
2024/01/03 03:36:26;;;;;;;;;10.33;2.00;;;;;11.91;87.64;99472.94;4977902;28;45359;-53
2024/01/03 03:38:51;;;;;;;;;5.33;2.33;;;;;11.89;87.84;99471.47;4977427;28;54693;-52
2024/01/03 03:41:19;;;;;;;;;5.33;3.33;;;;;11.85;88.04;99452.38;4976385;28;45411;-52
2024/01/03 03:43:45;;;;;;;;;1.67;1.67;;;;;11.70;87.81;99428.38;4978180;28;45406;-53
2024/01/03 03:46:11;;;;;;;;;2.67;1.00;;;;;11.76;88.08;99452.63;4977520;28;45996;-53
2024/01/03 03:48:37;;;;;;;;;3.67;0.33;;;;;11.73;89.43;99451.16;4977746;28;45320;-52
2024/01/03 03:51:03;;;;;;;;;3.00;2.00;;;;;11.68;88.57;99448.22;4977628;28;45339;-53
2024/01/03 03:53:28;;;;;;;;;2.67;1.33;;;;;11.66;89.04;99428.94;4977908;28;45468;-51
2024/01/03 03:55:53;;;;;;;;;1.00;1.00;;;;;11.65;88.49;99424.63;4977831;28;45165;-51
2024/01/03 03:58:18;;;;;;;;;1.00;1.00;;;;;11.66;88.22;99427.09;4977562;28;46476;-52
2024/01/03 04:00:44;;;;;;;;;1.00;0.67;;;;;11.65;87.15;99417.44;4977690;28;45331;-52
2024/01/03 04:03:09;;;;;;;;;2.00;1.00;;;;;11.62;87.04;99415.16;4977539;28;46544;-54
2024/01/03 04:05:36;;;;;;;;;0.67;0.00;;;;;11.61;87.41;99408.19;4977874;28;45317;-53
2024/01/03 04:08:02;;;;;;;;;1.00;0.00;;;;;11.65;87.08;99438.75;4977635;28;45506;-53
2024/01/03 04:10:28;;;;;;;;;2.67;0.67;;;;;11.61;86.54;99441.97;4977343;28;45473;-53
2024/01/03 04:12:55;;;;;;;;;0.00;0.00;;;;;11.56;87.38;99436.38;4977556;28;45426;-53
2024/01/03 04:15:21;;;;;;;;;2.00;0.00;;;;;11.53;87.90;99450.88;4977679;28;45400;-52
2024/01/03 04:17:46;;;;;;;;;0.00;0.00;;;;;11.49;88.54;99454.94;4977293;28;45300;-55
2024/01/03 04:20:11;;;;;;;;;0.00;0.00;;;;;11.48;88.53;99459.44;4977366;28;50764;-52
2024/01/03 04:22:41;;;;;;;;;0.00;0.00;;;;;11.47;89.47;99459.63;4977647;28;45871;-49
2024/01/03 04:25:07;;;;;;;;;0.00;0.00;;;;;11.45;88.45;99445.66;4977455;28;45518;-51
2024/01/03 04:27:32;;;;;;;;;0.67;0.67;;;;;11.43;89.21;99456.50;4977079;28;45351;-52
2024/01/03 04:29:58;;;;;;;;;2.67;1.00;;;;;11.48;90.41;99455.94;4977015;28;45458;-52
2024/01/03 04:32:23;;;;;;;;;1.00;0.00;;;;;11.49;90.50;99463.75;4977211;28;45430;-50
2024/01/03 04:34:48;;;;;;;;;1.67;1.00;;;;;11.50;89.29;99467.22;4977243;28;45316;-52
2024/01/03 04:37:13;;;;;;;;;0.33;0.00;;;;;11.49;89.01;99461.09;4976852;28;46380;-51
2024/01/03 04:39:39;;;;;;;;;0.00;0.00;;;;;11.52;88.56;99469.72;4976726;28;51161;-50
2024/01/03 04:42:04;;;;;;;;;5.00;1.00;;;;;11.50;87.91;99453.91;4977068;28;45295;-53
2024/01/03 04:44:29;;;;;;;;;6.00;0.33;;;;;11.54;88.00;99470.34;4977220;28;45431;-51
2024/01/03 04:46:55;;;;;;;;;3.33;1.00;;;;;11.55;87.58;99478.19;4976784;28;46234;-51
2024/01/03 04:49:20;;;;;;;;;2.00;1.00;;;;;11.56;87.75;99485.16;4976826;28;45450;-50
2024/01/03 04:51:45;;;;;;;;;2.00;0.00;;;;;11.53;87.31;99474.84;4977180;28;45345;-51
2024/01/03 04:54:11;;;;;;;;;2.00;1.00;;;;;11.55;87.06;99475.53;4976764;28;45434;-52
2024/01/03 04:56:36;;;;;;;;;2.33;2.00;;;;;11.58;86.86;99488.44;4975425;28;49261;-50
2024/01/03 04:59:03;;;;;;;;;0.33;0.00;;;;;11.61;86.31;99487.25;4976637;28;45350;-50
2024/01/03 05:01:28;;;;;;;;;0.00;0.00;;;;;11.59;85.74;99490.13;4976750;28;45323;-49
2024/01/03 05:03:54;;;;;;;;;3.33;1.00;;;;;11.58;85.65;99493.78;4976973;28;45476;-52
2024/01/03 05:06:19;;;;;;;;;2.00;0.67;;;;;11.60;85.92;99494.44;4976445;28;46311;-52
2024/01/03 05:08:45;;;;;;;;;0.00;0.00;;;;;11.59;85.99;99487.47;4976640;28;45345;-52
2024/01/03 05:11:10;;;;;;;;;1.00;1.00;;;;;11.61;85.12;99487.25;4976564;28;45327;-52
2024/01/03 05:13:36;;;;;;;;;1.33;1.33;;;;;11.61;84.83;99492.59;4976812;28;45367;-54
2024/01/03 05:16:01;;;;;;;;;1.00;0.00;;;;;11.61;84.67;99503.25;4976398;28;45434;-49
2024/01/03 05:18:27;;;;;;;;;0.00;0.00;;;;;11.61;84.13;99508.56;4976504;28;45416;-51
2024/01/03 05:20:53;;;;;;;;;0.00;0.00;;;;;11.58;83.32;99507.09;4976626;28;45364;-51
2024/01/03 05:23:18;;;;;;;;;1.00;0.00;;;;;11.57;83.23;99497.44;4976742;28;45373;-48
2024/01/03 05:25:43;;;;;;;;;1.00;0.00;;;;;11.52;83.67;99497.19;4976060;28;50292;-50
2024/01/03 05:28:09;;;;;;;;;1.33;0.00;;;;;11.58;82.08;99503.59;4976154;28;48736;-53
2024/01/03 05:30:34;;;;;;;;;0.00;0.00;;;;;11.56;83.05;99506.47;4976395;28;45563;-58
2024/01/03 05:32:59;;;;;;;;;4.00;1.00;;;;;11.55;83.17;99501.31;4976713;28;45340;-53
2024/01/03 05:35:24;;;;;;;;;0.00;0.00;;;;;11.55;82.44;99509.31;4975991;28;48642;-50
2024/01/03 05:37:51;;;;;;;;;1.00;1.00;;;;;11.51;82.74;99516.84;4976049;28;45522;-52
2024/01/03 05:40:18;;;;;;;;;1.00;0.00;;;;;11.48;82.91;99518.03;4976399;28;45433;-50
2024/01/03 05:42:43;;;;;;;;;1.00;0.00;;;;;11.46;83.26;99513.88;4976638;28;45391;-53
2024/01/03 05:45:09;;;;;;;;;0.00;0.00;;;;;11.35;83.91;99506.34;4976207;28;46253;-51
2024/01/03 05:47:34;;;;;;;;;0.00;0.00;;;;;11.30;84.07;99500.75;4976280;28;45230;-50
2024/01/03 05:49:59;;;;;;;;;0.00;0.00;;;;;11.39;84.95;99534.28;4976437;28;45311;-52
2024/01/03 05:52:25;;;;;;;;;2.00;1.00;;;;;11.36;85.67;99529.31;4976595;28;45426;-54
2024/01/03 05:54:50;;;;;;;;;0.00;0.00;;;;;11.35;85.87;99540.97;4975748;28;45272;-51
2024/01/03 05:57:15;;;;;;;;;2.33;0.00;;;;;11.34;86.06;99544.66;4976408;28;45316;-52
2024/01/03 05:59:41;;;;;;;;;0.00;0.00;;;;;11.28;85.92;99535.53;4976119;28;45252;-48
2024/01/03 06:02:06;;;;;;;;;2.00;0.00;;;;;11.32;86.41;99543.97;4976348;28;45343;-51
2024/01/03 06:04:32;;;;;;;;;0.00;0.00;;;;;11.20;87.39;99536.41;4975729;28;47158;-48
2024/01/03 06:06:57;;;;;;;;;1.33;0.00;;;;;11.22;87.38;99538.91;4958393;28;45529;-52
2024/01/03 06:09:22;;;;;;;;;1.00;1.00;;;;;11.31;87.09;99553.81;4978534;28;45470;-52
2024/01/03 06:11:48;;;;;;;;;0.00;0.00;;;;;11.30;87.17;99544.19;4979511;28;45435;-51
2024/01/03 06:14:13;;;;;;;;;2.00;0.00;;;;;11.28;87.66;99550.69;4979194;28;47054;-51
2024/01/03 06:16:38;;;;;;;;;4.00;1.67;;;;;11.29;87.82;99547.00;4979239;28;45399;-52
2024/01/03 06:19:04;;;;;;;;;7.00;1.00;;;;;11.16;87.73;99529.81;4979141;28;45374;-53
2024/01/03 06:21:29;;;;;;;;;1.00;1.00;;;;;11.28;87.39;99550.69;4979361;28;45440;-51
2024/01/03 06:23:55;;;;;;;;;6.67;1.00;;;;;11.17;87.88;99536.81;4978773;28;47024;-53
2024/01/03 06:26:21;;;;;;;;;5.33;1.67;;;;;11.26;87.38;99542.88;4978818;28;45395;-53
2024/01/03 06:28:46;;;;;;;;;0.67;0.67;;;;;11.24;87.75;99543.03;4979328;28;45476;-53
2024/01/03 06:31:12;;;;;;;;;2.67;0.00;;;;;11.24;88.05;99553.69;4979333;28;45339;-53
2024/01/03 06:33:37;;;;;;;;;6.00;1.33;;;;;11.24;87.66;99556.34;4978841;28;46062;-53
2024/01/03 06:36:03;;;;;;;;;5.33;1.33;;;;;11.24;87.83;99548.38;4978474;28;45257;-53
2024/01/03 06:38:28;;;;;;;;;3.00;0.00;;;;;11.26;87.13;99558.84;4978896;28;45479;-51
2024/01/03 06:40:53;;;;;;;;;6.33;2.67;;;;;11.28;87.31;99562.16;4979106;28;45333;-53
2024/01/03 06:43:19;;;;;;;;;7.67;0.67;;;;;11.31;87.42;99567.13;4978592;28;46248;-53
2024/01/03 06:45:45;;;;;;;;;6.00;2.00;;;;;11.23;87.60;99545.91;4978866;28;45233;-53
2024/01/03 06:48:11;;;;;;;;;2.33;2.00;;;;;11.37;87.21;99568.22;4978615;28;45342;-53
2024/01/03 06:50:36;;;;;;;;;3.67;0.33;;;;;11.36;87.08;99585.22;4977544;28;45470;-51
2024/01/03 06:53:01;;;;;;;;;2.33;2.33;;;;;11.37;87.10;99581.53;4978523;28;47201;-53
2024/01/03 06:55:26;;;;;;;;;1.67;1.67;;;;;11.38;87.51;99575.22;4978251;28;46107;-53
2024/01/03 06:57:53;;;;;;;;;5.33;1.00;;;;;11.37;87.34;99578.88;4978645;28;45413;-53
2024/01/03 07:00:19;;;;;;;;;1.33;1.33;;;;;11.34;87.20;99569.44;4978439;28;45347;-53
2024/01/03 07:02:44;;;;;;;;;2.33;1.00;;;;;11.32;86.73;99581.25;4978064;28;45399;-52
2024/01/03 07:05:09;;;;;;;;;2.67;2.00;;;;;11.31;87.04;99591.09;4978394;28;45263;-49
2024/01/03 07:07:35;;;;;;;;;8.00;1.00;;;;;11.26;86.89;99582.00;4978373;28;45982;-48
2024/01/03 07:10:00;;;;;;;;;4.00;0.67;;;;;11.29;87.26;99569.13;4978251;28;45405;-52
2024/01/03 07:12:25;;;;;;;;;5.00;0.67;;;;;11.30;86.86;99578.78;4977504;28;51253;-52
2024/01/03 07:14:51;;;;;;;;;4.67;0.67;;;;;11.31;87.16;99571.63;4977792;28;45359;-52
2024/01/03 07:17:16;;;;;;;;;1.67;0.00;;;;;11.32;87.46;99583.91;4978308;28;45425;-51
2024/01/03 07:19:41;;;;;;;;;6.00;3.00;;;;;11.29;87.77;99578.94;4977293;28;45784;-52
2024/01/03 07:22:07;;;;;;;;;4.67;1.33;;;;;11.27;87.36;99576.47;4977686;28;46008;-53
2024/01/03 07:24:35;;;;;;;;;2.67;2.00;;;;;11.28;87.43;99585.28;4978056;28;45256;-51
2024/01/03 07:27:00;;;;;;;;;2.00;0.67;;;;;11.27;87.54;99579.13;4978073;28;45343;-52
2024/01/03 07:29:25;;;;;;;;;4.33;1.67;;;;;11.22;87.67;99578.84;4978353;28;45333;-52
2024/01/03 07:31:51;;;;;;;;;8.67;3.00;;;;;11.28;87.42;99582.63;4977792;28;46094;-51
2024/01/03 07:34:16;;;;;;;;;4.33;2.00;;;;;11.28;87.85;99594.09;4978053;28;45439;-52
2024/01/03 07:36:42;;;;;;;;;6.33;1.33;;;;;11.28;87.56;99583.44;4977954;28;45387;-53
2024/01/03 07:39:08;;;;;;;;;1.00;1.00;;;;;11.30;87.36;99583.28;4978215;28;45350;-53
2024/01/03 07:41:35;;;;;;;;;7.00;1.67;;;;;11.30;87.27;99589.44;4977654;28;45470;-51
2024/01/03 07:44:01;;;;;;;;;3.00;1.67;;;;;11.28;87.42;99585.28;4977711;28;45473;-53
2024/01/03 07:46:26;;;;;;;;;8.00;6.33;;;;;11.28;87.34;99594.09;4978052;28;45402;-53
2024/01/03 07:48:52;;;;;;;;;4.67;3.00;;;;;11.30;87.19;99592.09;4977963;28;45562;-52
2024/01/03 07:51:18;;;;;;;;;6.67;2.00;;;;;11.33;87.14;99593.56;4977474;28;46253;-52
2024/01/03 07:53:44;;;;;;;;;4.67;1.00;;;;;11.32;86.71;99595.38;4978014;28;45347;-52
2024/01/03 07:56:09;;;;;;;;;7.00;2.00;;;;;11.33;86.93;99598.88;4977414;28;45409;-54
2024/01/03 07:58:35;;;;;;;;;4.67;1.00;;;;;11.37;86.89;99602.84;4978060;28;45237;-53
2024/01/03 08:01:00;;;;;;;;;4.67;1.00;;;;;11.39;86.93;99598.19;4976262;28;46088;-53
2024/01/03 08:03:26;;;;;;;;;7.00;2.00;;;;;11.42;86.62;99616.47;4977495;28;45341;-52
2024/01/03 08:05:53;;;;;;;;;6.33;5.00;;;;;11.48;86.40;99605.06;4977757;28;45355;-51
2024/01/03 08:08:18;;;;;;;;;6.33;1.33;;;;;11.50;86.19;99600.38;4977698;28;45404;-52
2024/01/03 08:10:43;;;;;;;;;5.33;2.33;;;;;11.53;85.53;99599.22;4992405;28;47265;-53
2024/01/03 08:13:09;;;;;;;;;7.33;1.00;;;;;11.55;85.26;99584.72;4977431;28;45430;-54
2024/01/03 08:15:34;;;;;;;;;7.00;1.00;;;;;11.55;84.20;99594.53;4977491;28;45458;-50
2024/01/03 08:18:00;;;;;;;;;5.33;2.33;;;;;11.61;84.03;99615.94;4977602;28;45331;-54
2024/01/03 08:20:25;;;;;;;;;1.67;1.00;;;;;11.58;84.75;99599.50;4977214;28;47185;-54
2024/01/03 08:22:51;;;;;;;;;0.33;0.00;;;;;11.67;85.87;99609.91;4977302;28;45371;-54
2024/01/03 08:25:17;;;;;;;;;3.00;1.67;;;;;11.66;85.74;99602.91;4977561;28;45261;-53
2024/01/03 08:27:43;;;;;;;;;2.00;2.00;;;;;11.68;86.48;99619.53;4976203;28;45484;-53
2024/01/03 08:30:08;;;;;;;;;1.00;1.00;;;;;11.69;86.89;99615.88;4976963;28;46124;-52
2024/01/03 08:32:36;;;;;;;;;8.67;1.00;;;;;11.69;87.73;99617.69;4977034;28;45292;-51
2024/01/03 08:35:02;;;;;;;;;6.00;2.67;;;;;11.69;87.93;99618.53;4977195;28;45340;-53
2024/01/03 08:37:28;;;;;;;;;3.67;0.33;;;;;11.56;88.42;99599.69;4977162;28;45411;-53
2024/01/03 08:39:53;;;;;;;;;4.00;2.00;;;;;11.69;88.52;99610.53;4976899;28;46929;-54
2024/01/03 08:42:19;;;;;;;;;3.00;3.00;;;;;11.67;89.23;99623.22;4976914;28;46910;-54
2024/01/03 08:44:44;;;;;;;;;7.67;1.00;;;;;11.68;89.99;99616.06;4977344;28;45443;-53
2024/01/03 08:47:12;;;;;;;;;0.00;0.00;;;;;11.65;89.56;99613.75;4977257;28;45432;-47
2024/01/03 08:49:37;;;;;;;;;2.33;1.00;;;;;11.64;89.41;99618.25;4976688;28;46357;-52
2024/01/03 08:52:04;;;;;;;;;1.67;1.67;;;;;11.61;89.70;99607.13;4976803;28;45391;-48
2024/01/03 08:54:29;;;;;;;;;2.00;2.00;;;;;11.57;89.98;99609.31;4977042;28;45340;-48
2024/01/03 08:56:55;;;;;;;;;3.33;1.00;;;;;11.58;90.09;99605.63;4977082;28;45434;-50
2024/01/03 08:59:20;;;;;;;;;2.33;2.00;;;;;11.66;89.70;99612.72;4976766;28;46222;-48
2024/01/03 09:01:50;;;;;;;;;6.00;1.00;;;;;11.73;89.19;99616.34;4976952;28;45371;-49
2024/01/03 09:04:15;;;;;;;;;9.33;1.00;;;;;11.83;89.86;99608.09;4975595;28;45531;-48
2024/01/03 09:06:40;;;;;;;;;1.00;1.00;;;;;11.92;88.31;99612.31;4976802;28;45378;-48
2024/01/03 09:09:06;;;;;;;;;3.00;1.00;;;;;11.99;88.42;99610.59;4976727;28;46890;-51
2024/01/03 09:11:31;;;;;;;;;7.00;2.67;;;;;12.08;87.29;99614.81;4976553;28;45449;-53
2024/01/03 09:13:57;;;;;;;;;7.67;2.33;;;;;12.26;85.84;99605.63;4975734;28;45275;-53
2024/01/03 09:16:23;;;;;;;;;9.67;3.00;;;;;12.41;85.54;99609.09;4976907;28;45304;-47
2024/01/03 09:18:49;;;;;;;;;4.00;2.33;;;;;12.43;84.73;99613.25;4976609;28;45445;-51
2024/01/03 09:21:15;;;;;;;;;5.33;2.00;;;;;12.47;83.92;99606.53;4976717;28;45323;-51
2024/01/03 09:23:41;;;;;;;;;7.33;2.67;;;;;12.79;84.42;99606.25;4976586;28;45426;-48
2024/01/03 09:26:07;;;;;;;;;6.00;2.00;;;;;12.90;82.34;99587.09;4976874;28;45583;-50
2024/01/03 09:28:35;;;;;;;;;7.33;6.33;;;;;13.09;81.96;99610.47;4976317;28;46874;-52
2024/01/03 09:31:04;;;;;;;;;6.00;1.67;;;;;13.04;81.92;99604.88;4976544;28;45493;-51
2024/01/03 09:33:30;;;;;;;;;7.67;3.00;;;;;12.94;81.45;99610.53;4976477;28;45292;-49
2024/01/03 09:35:55;;;;;;;;;2.00;2.00;;;;;12.91;81.81;99604.75;4976311;28;45219;-48
2024/01/03 09:38:20;;;;;;;;;7.33;2.67;;;;;13.01;81.31;99610.59;4976220;28;46157;-47
2024/01/03 09:40:46;;;;;;;;;8.67;3.00;;;;;13.60;80.03;99610.31;4976517;28;45352;-48
2024/01/03 09:43:12;;;;;;;;;6.33;2.67;;;;;13.65;78.14;99607.91;4975942;28;45425;-50
2024/01/03 09:45:37;;;;;;;;;6.00;2.00;;;;;13.59;78.70;99623.88;4980047;28;45396;-49
2024/01/03 09:48:04;;;;;;;;;2.00;2.00;;;;;13.40;79.11;99622.69;4979600;28;46282;-49
2024/01/03 09:50:30;;;;;;;;;3.33;3.00;;;;;13.18;79.32;99605.81;4979716;28;45370;-52
2024/01/03 09:52:58;;;;;;;;;6.00;3.00;;;;;13.16;80.01;99611.38;4979558;28;45443;-53
2024/01/03 09:55:23;;;;;;;;;10.00;2.00;;;;;13.06;80.08;99613.53;4979818;28;45263;-49
2024/01/03 09:57:54;;;;;;;;;9.33;3.00;;;;;13.02;80.35;99608.75;4979353;28;45470;-52
2024/01/03 10:00:20;;;;;;;;;6.33;3.00;;;;;12.99;80.71;99612.63;4979221;28;45542;-50
2024/01/03 10:02:47;;;;;;;;;5.67;2.00;;;;;13.00;80.47;99616.94;4979703;28;45414;-51
2024/01/03 10:05:22;;;;;;;;;7.67;1.00;;;;;13.25;79.66;99614.75;4979902;28;45475;-53
2024/01/03 10:07:49;;;;;;;;;7.33;4.67;;;;;13.36;79.29;99619.59;4979592;28;46377;-49
2024/01/03 10:10:29;;;;;;;;;5.33;1.67;;;;;13.35;79.65;99612.56;4979356;28;45334;-51
2024/01/03 10:12:55;;;;;;;;;5.00;3.00;;;;;13.98;78.50;99618.81;4979248;28;45445;-50
2024/01/03 10:15:20;;;;;;;;;2.67;2.00;;;;;13.92;78.16;99624.13;4978212;28;45370;-53
2024/01/03 10:17:46;;;;;;;;;3.00;2.33;;;;;13.82;77.75;99615.59;4979222;28;46793;-49
2024/01/03 10:20:28;;;;;;;;;3.67;2.00;;;;;14.16;77.06;99615.66;4979122;28;45423;-51
2024/01/03 10:23:14;;;;;;;;;7.00;3.00;;;;;14.25;76.51;99605.59;4979307;28;45409;-49
2024/01/03 10:25:44;;;;;;;;;8.67;4.33;;;;;14.10;76.65;99612.91;4979335;28;45476;-51
2024/01/03 10:28:16;;;;;;;;;7.33;4.33;;;;;14.08;76.86;99615.81;4978788;28;46306;-50
2024/01/03 10:30:41;;;;;;;;;10.33;3.33;;;;;13.87;77.24;99606.00;4978880;28;45439;-53
2024/01/03 10:33:09;;;;;;;;;10.50;3.50;;;;;13.97;77.96;99609.13;4978841;28;45420;-49
2024/01/03 10:35:36;;;;;;;;;2.00;2.00;;;;;14.77;75.39;99600.69;4979065;28;45312;-49
2024/01/03 10:38:03;;;;;;;;;3.25;2.00;;;;;15.21;73.32;99600.13;4978612;28;45240;-50
2024/01/03 10:40:33;;;;;;;;;4.33;2.33;;;;;15.17;74.03;99581.00;4978726;28;45284;-52
2024/01/03 10:43:00;;;;;;;;;3.75;2.50;;;;;14.84;72.89;99588.16;4978881;28;45354;-54
2024/01/03 10:45:27;;;;;;;;;2.50;1.00;;;;;14.77;74.15;99574.72;4979108;28;45299;-52
2024/01/03 10:47:53;;;;;;;;;2.50;2.25;;;;;15.63;72.70;99579.31;4978601;28;45489;-53
2024/01/03 10:50:19;;;;;;;;;3.00;1.25;;;;;16.99;67.80;99573.09;4978854;28;45777;-52
2024/01/03 10:52:46;;;;;;;;;1.50;1.50;;;;;17.42;65.66;99574.00;4979088;28;45383;-53
2024/01/03 10:55:14;;;;;;;;;4.75;3.00;;;;;17.36;65.57;99577.56;4977395;28;45331;-52
2024/01/03 10:57:48;;;;;;;;;4.25;1.75;;;;;16.90;65.57;99575.22;4978398;28;46268;-53
2024/01/03 11:00:22;;;;;;;;;3.75;2.00;;;;;16.67;65.79;99597.19;4978478;28;45431;-53
2024/01/03 11:03:03;;;;;;;;;5.50;2.00;;;;;16.46;66.45;99587.59;4978568;28;45387;-49
2024/01/03 11:05:36;;;;;;;;;12.25;3.75;;;;;17.47;65.01;99554.50;4978542;28;45411;-52
2024/01/03 11:08:10;;;;;;;;;4.75;3.00;;;;;18.06;62.78;99563.88;4978267;28;45244;-53
2024/01/03 11:10:53;;;;;;;;;4.00;2.00;;;;;17.74;62.10;99570.38;4978252;28;45291;-53
2024/01/03 11:13:32;;;;;;;;;3.00;2.50;;;;;18.07;62.77;99565.50;4978284;28;45261;-53
2024/01/03 11:15:58;;;;;;;;;4.50;2.25;;;;;19.08;58.91;99555.09;4978463;28;45681;-53
2024/01/03 11:18:42;;;;;;;;;7.75;2.75;;;;;19.77;59.53;99560.81;4978216;28;47135;-51
2024/01/03 11:21:25;;;;;;;;;7.20;2.20;;;;;19.58;56.43;99558.19;4978241;28;45303;-52
2024/01/03 11:23:50;;;;;;;;;6.60;2.00;;;;;19.87;55.61;99561.84;4978298;28;45354;-52
2024/01/03 11:26:16;;;;;;;;;5.25;3.75;;;;;20.19;53.28;99551.47;4978729;28;45226;-53
2024/01/03 11:28:48;;;;;;;;;5.25;1.75;;;;;20.43;55.74;99540.59;4978069;28;45310;-51
2024/01/03 11:31:13;;;;;;;;;4.40;1.40;;;;;20.19;53.56;99537.97;4978118;28;45367;-53